createdAt,value
2018-12-24T00:02:10.402Z,20.78
2018-12-24T00:04:36.433Z,20.76
2018-12-24T00:07:02.417Z,20.76
2018-12-24T00:09:28.448Z,20.77
2018-12-24T00:11:54.434Z,20.75
2018-12-24T00:14:20.409Z,20.76
2018-12-24T00:16:46.426Z,20.74
2018-12-24T00:19:12.453Z,20.73
2018-12-24T00:21:38.457Z,20.74
2018-12-24T00:24:04.478Z,20.73
2018-12-24T00:26:30.437Z,20.73
2018-12-24T00:28:56.422Z,20.73
2018-12-24T00:31:22.445Z,20.74
2018-12-24T00:33:48.472Z,20.73
2018-12-24T00:36:14.440Z,20.72
2018-12-24T00:38:40.420Z,20.73
2018-12-24T00:41:06.455Z,20.72
2018-12-24T00:43:32.420Z,20.71
2018-12-24T00:45:58.443Z,20.71
2018-12-24T00:48:24.440Z,20.71
2018-12-24T00:50:50.465Z,20.70
2018-12-24T00:53:16.493Z,20.70
2018-12-24T00:55:42.433Z,20.71
2018-12-24T00:58:08.454Z,20.70
2018-12-24T01:00:34.434Z,20.69
2018-12-24T01:03:00.470Z,20.69
2018-12-24T01:05:26.465Z,20.69
2018-12-24T01:07:52.479Z,20.70
2018-12-24T01:10:18.515Z,20.69
2018-12-24T01:12:44.498Z,20.69
2018-12-24T01:15:10.479Z,20.69
2018-12-24T01:17:36.495Z,20.69
2018-12-24T01:20:02.483Z,20.68
2018-12-24T01:22:28.475Z,20.68
2018-12-24T01:24:54.479Z,20.69
2018-12-24T01:27:20.472Z,20.68
2018-12-24T01:29:46.434Z,20.67
2018-12-24T01:32:12.453Z,20.67
2018-12-24T01:34:38.476Z,20.66
2018-12-24T01:37:04.453Z,20.65
2018-12-24T01:39:30.457Z,20.66
2018-12-24T01:41:56.430Z,20.66
2018-12-24T01:44:22.473Z,20.66
2018-12-24T01:46:48.487Z,20.66
2018-12-24T01:49:14.446Z,20.66
2018-12-24T01:51:40.455Z,20.64
2018-12-24T01:54:06.441Z,20.64
2018-12-24T01:56:32.420Z,20.65
2018-12-24T01:58:58.476Z,20.65
2018-12-24T02:01:24.466Z,20.66
2018-12-24T02:03:50.442Z,20.65
2018-12-24T02:06:16.463Z,20.64
2018-12-24T02:08:42.446Z,20.65
2018-12-24T02:11:08.415Z,20.64
2018-12-24T02:13:34.465Z,20.63
2018-12-24T02:16:00.432Z,20.63
2018-12-24T02:18:26.418Z,20.63
2018-12-24T02:20:52.428Z,20.64
2018-12-24T02:23:18.407Z,20.64
2018-12-24T02:25:44.426Z,20.64
2018-12-24T02:28:10.405Z,20.64
2018-12-24T02:30:36.399Z,20.63
2018-12-24T02:33:02.409Z,20.63
2018-12-24T02:35:28.379Z,20.62
2018-12-24T02:37:54.425Z,20.62
2018-12-24T02:40:20.400Z,20.63
2018-12-24T02:42:52.387Z,20.63
2018-12-24T02:45:12.387Z,20.63
2018-12-24T02:47:38.371Z,20.62
2018-12-24T02:50:04.353Z,20.62
2018-12-24T02:52:30.366Z,20.62
2018-12-24T02:54:56.369Z,20.62
2018-12-24T02:57:22.386Z,20.61
2018-12-24T02:59:48.368Z,20.62
2018-12-24T03:02:14.378Z,20.62
2018-12-24T03:04:40.389Z,20.62
2018-12-24T03:07:06.386Z,20.62
2018-12-24T03:09:32.367Z,20.62
2018-12-24T03:11:58.403Z,20.62
2018-12-24T03:14:24.372Z,20.61
2018-12-24T03:16:50.350Z,20.61
2018-12-24T03:19:16.348Z,20.61
2018-12-24T03:21:42.313Z,20.61
2018-12-24T03:24:08.303Z,20.61
2018-12-24T03:26:34.312Z,20.61
2018-12-24T03:29:00.281Z,20.60
2018-12-24T03:31:26.313Z,20.59
2018-12-24T03:33:52.306Z,20.61
2018-12-24T03:36:18.269Z,20.60
2018-12-24T03:38:44.242Z,20.59
2018-12-24T03:41:10.404Z,20.60
2018-12-24T03:43:36.256Z,20.60
2018-12-24T03:46:02.254Z,20.59
2018-12-24T03:48:28.219Z,20.59
2018-12-24T03:50:54.202Z,20.60
2018-12-24T03:53:20.225Z,20.61
2018-12-24T03:55:46.201Z,20.61
2018-12-24T03:58:12.198Z,20.60
2018-12-24T04:00:38.225Z,20.59
2018-12-24T04:03:04.186Z,20.58
2018-12-24T04:05:30.170Z,20.57
2018-12-24T04:07:56.179Z,20.58
2018-12-24T04:10:22.175Z,20.57
2018-12-24T04:12:48.167Z,20.58
2018-12-24T04:15:14.186Z,20.58
2018-12-24T04:17:40.147Z,20.57
2018-12-24T04:20:06.136Z,20.57
2018-12-24T04:22:32.133Z,20.57
2018-12-24T04:24:58.133Z,20.56
2018-12-24T04:27:24.126Z,20.57
2018-12-24T04:29:50.125Z,20.56
2018-12-24T04:32:16.094Z,20.56
2018-12-24T04:34:42.105Z,20.57
2018-12-24T04:37:08.074Z,20.56
2018-12-24T04:39:34.060Z,20.58
2018-12-24T04:42:00.078Z,20.56
2018-12-24T04:44:26.060Z,20.57
2018-12-24T04:46:52.030Z,20.55
2018-12-24T04:49:18.069Z,20.56
2018-12-24T04:51:44.053Z,20.57
2018-12-24T04:54:10.066Z,20.57
2018-12-24T04:56:36.085Z,20.56
2018-12-24T04:59:02.093Z,20.56
2018-12-24T05:01:28.068Z,20.56
2018-12-24T05:03:54.081Z,20.56
2018-12-24T05:06:20.083Z,20.55
2018-12-24T05:08:46.064Z,20.55
2018-12-24T05:11:12.073Z,20.54
2018-12-24T05:13:41.021Z,20.55
2018-12-24T05:16:04.058Z,20.56
2018-12-24T05:18:30.050Z,20.54
2018-12-24T05:20:56.019Z,20.55
2018-12-24T05:23:22.029Z,20.57
2018-12-24T05:25:48.022Z,20.57
2018-12-24T05:28:14.011Z,20.58
2018-12-24T05:30:40.057Z,20.57
2018-12-24T05:33:06.037Z,20.58
2018-12-24T05:35:32.067Z,20.58
2018-12-24T05:37:58.083Z,20.59
2018-12-24T05:40:24.078Z,20.60
2018-12-24T05:42:50.053Z,20.61
2018-12-24T05:45:16.070Z,20.63
2018-12-24T05:47:42.113Z,20.63
2018-12-24T05:50:08.084Z,20.64
2018-12-24T05:52:34.115Z,20.64
2018-12-24T05:55:00.256Z,20.62
2018-12-24T05:57:26.082Z,20.62
2018-12-24T05:59:52.100Z,20.61
2018-12-24T06:02:18.121Z,20.61
2018-12-24T06:04:44.166Z,20.62
2018-12-24T06:07:10.204Z,20.62
2018-12-24T06:09:36.141Z,20.63
2018-12-24T06:12:02.185Z,20.63
2018-12-24T06:14:28.161Z,20.63
2018-12-24T06:16:54.122Z,20.63
2018-12-24T06:19:20.126Z,20.62
2018-12-24T06:21:46.111Z,20.61
2018-12-24T06:24:12.091Z,20.62
2018-12-24T06:26:38.116Z,20.62
2018-12-24T06:29:04.122Z,20.60
2018-12-24T06:31:30.107Z,20.61
2018-12-24T06:33:56.119Z,20.60
2018-12-24T06:36:22.153Z,20.60
2018-12-24T06:38:48.123Z,20.61
2018-12-24T06:41:14.115Z,20.61
2018-12-24T06:43:40.136Z,20.61
2018-12-24T06:46:06.120Z,20.61
2018-12-24T06:48:32.119Z,20.60
2018-12-24T06:50:58.615Z,20.60
2018-12-24T06:53:24.577Z,20.61
2018-12-24T06:55:50.602Z,20.60
2018-12-24T06:58:16.591Z,20.60
2018-12-24T07:00:42.574Z,20.61
2018-12-24T07:03:08.588Z,20.60
2018-12-24T07:05:34.599Z,20.59
2018-12-24T07:08:00.584Z,20.60
2018-12-24T07:10:26.612Z,20.59
2018-12-24T07:12:52.580Z,20.59
2018-12-24T07:15:18.563Z,20.60
2018-12-24T07:17:44.695Z,20.61
2018-12-24T07:20:10.676Z,20.61
2018-12-24T07:22:36.665Z,20.61
2018-12-24T07:25:02.683Z,20.67
2018-12-24T07:27:28.662Z,20.66
2018-12-24T07:29:54.644Z,20.66
2018-12-24T07:32:21.370Z,20.65
2018-12-24T07:34:47.355Z,20.63
2018-12-24T07:37:13.383Z,20.61
2018-12-24T07:39:39.883Z,20.61
2018-12-24T07:42:05.859Z,20.60
2018-12-24T07:44:31.860Z,20.61
2018-12-24T07:46:58.518Z,20.60
2018-12-24T07:49:24.498Z,20.61
2018-12-24T07:51:50.481Z,20.61
2018-12-24T07:54:16.581Z,20.61
2018-12-24T07:56:42.559Z,20.60
2018-12-24T07:59:08.686Z,20.60
2018-12-24T08:01:34.961Z,20.60
2018-12-24T08:04:04.179Z,20.61
2018-12-24T08:06:30.928Z,20.62
2018-12-24T08:08:57.257Z,20.60
2018-12-24T08:11:23.445Z,20.62
2018-12-24T08:13:50.385Z,20.66
2018-12-24T08:16:16.351Z,20.69
2018-12-24T08:18:43.067Z,20.66
2018-12-24T08:21:09.092Z,20.67
2018-12-24T08:23:35.256Z,20.65
2018-12-24T08:26:01.247Z,20.63
2018-12-24T08:28:27.276Z,20.65
2018-12-24T08:30:53.240Z,20.71
2018-12-24T08:33:19.241Z,20.72
2018-12-24T08:35:45.853Z,20.72
2018-12-24T08:38:11.902Z,20.73
2018-12-24T08:40:37.923Z,20.71
2018-12-24T08:43:03.949Z,20.72
2018-12-24T08:45:29.982Z,20.75
2018-12-24T08:47:55.967Z,20.74
2018-12-24T08:50:21.965Z,20.76
2018-12-24T08:52:48.000Z,20.77
2018-12-24T08:55:14.046Z,20.78
2018-12-24T08:57:40.037Z,20.77
2018-12-24T09:00:06.051Z,20.77
2018-12-24T09:02:32.060Z,20.81
2018-12-24T09:04:58.044Z,20.82
2018-12-24T09:07:24.057Z,20.83
2018-12-24T09:09:50.032Z,20.82
2018-12-24T09:12:16.003Z,20.91
2018-12-24T09:14:50.034Z,21.05
2018-12-24T09:17:09.328Z,21.08
2018-12-24T09:19:35.480Z,21.00
2018-12-24T09:22:04.110Z,20.96
2018-12-24T09:24:30.077Z,20.95
2018-12-24T09:26:56.296Z,20.94
2018-12-24T09:29:23.210Z,20.93
2018-12-24T09:31:49.256Z,20.95
2018-12-24T09:34:15.652Z,20.93
2018-12-24T09:36:42.413Z,20.91
2018-12-24T09:39:08.432Z,20.91
2018-12-24T09:41:34.485Z,20.88
2018-12-24T09:44:00.693Z,20.88
2018-12-24T09:46:26.972Z,20.88
2018-12-24T09:48:52.952Z,20.89
2018-12-24T09:51:19.498Z,20.90
2018-12-24T09:53:45.717Z,20.92
2018-12-24T09:56:12.546Z,20.90
2018-12-24T09:58:38.544Z,20.88
2018-12-24T10:01:04.530Z,20.88
2018-12-24T10:03:31.598Z,20.96
2018-12-24T10:05:58.023Z,21.00
2018-12-24T10:08:24.053Z,21.05
2018-12-24T10:10:50.019Z,21.00
2018-12-24T10:13:16.044Z,21.01
2018-12-24T10:15:42.083Z,21.00
2018-12-24T10:18:08.065Z,20.99
2018-12-24T10:20:34.059Z,21.00
2018-12-24T10:23:00.105Z,20.99
2018-12-24T10:25:26.079Z,20.97
2018-12-24T10:27:52.063Z,20.96
2018-12-24T10:30:18.097Z,20.97
2018-12-24T10:32:44.091Z,21.00
2018-12-24T10:35:10.077Z,21.00
2018-12-24T10:37:36.110Z,21.01
2018-12-24T10:40:02.083Z,21.00
2018-12-24T10:42:28.051Z,20.97
2018-12-24T10:44:54.278Z,20.99
2018-12-24T10:47:20.278Z,21.00
2018-12-24T10:49:46.261Z,21.03
2018-12-24T10:52:12.597Z,21.03
2018-12-24T10:54:38.577Z,21.03
2018-12-24T10:57:04.568Z,21.06
2018-12-24T10:59:30.582Z,21.09
2018-12-24T11:01:56.586Z,21.12
2018-12-24T11:04:22.557Z,21.14
2018-12-24T11:06:48.583Z,21.13
2018-12-24T11:09:14.606Z,21.10
2018-12-24T11:11:40.567Z,21.09
2018-12-24T11:14:06.921Z,21.10
2018-12-24T11:16:32.912Z,21.15
2018-12-24T11:18:58.886Z,21.14
2018-12-24T11:21:24.953Z,21.17
2018-12-24T11:23:50.938Z,21.17
2018-12-24T11:26:16.961Z,21.17
2018-12-24T11:28:42.958Z,21.19
2018-12-24T11:31:08.960Z,21.20
2018-12-24T11:33:34.934Z,21.21
2018-12-24T11:36:01.010Z,21.22
2018-12-24T11:38:26.995Z,21.19
2018-12-24T11:40:52.975Z,21.21
2018-12-24T11:43:19.313Z,21.17
2018-12-24T11:45:45.276Z,21.15
2018-12-24T11:48:11.379Z,21.14
2018-12-24T11:50:37.380Z,21.13
2018-12-24T11:53:03.402Z,21.13
2018-12-24T11:55:29.380Z,21.11
2018-12-24T11:57:55.391Z,21.11
2018-12-24T12:00:21.375Z,21.10
2018-12-24T12:02:47.368Z,21.09
2018-12-24T12:05:13.545Z,21.10
2018-12-24T12:07:39.562Z,21.09
2018-12-24T12:10:05.542Z,21.10
2018-12-24T12:12:31.529Z,21.11
2018-12-24T12:14:57.547Z,21.10
2018-12-24T12:17:23.572Z,21.08
2018-12-24T12:19:50.192Z,21.08
2018-12-24T12:22:16.166Z,21.08
2018-12-24T12:24:42.328Z,21.10
2018-12-24T12:27:09.380Z,21.09
2018-12-24T12:29:35.368Z,21.09
2018-12-24T12:32:01.359Z,21.09
2018-12-24T12:34:27.561Z,21.07
2018-12-24T12:36:53.584Z,21.04
2018-12-24T12:39:19.581Z,21.04
2018-12-24T12:41:45.631Z,21.02
2018-12-24T12:44:11.622Z,21.01
2018-12-24T12:46:37.598Z,21.00
2018-12-24T12:49:04.093Z,20.99
2018-12-24T12:51:30.066Z,20.98
2018-12-24T12:53:56.078Z,20.98
2018-12-24T12:56:22.083Z,20.97
2018-12-24T12:58:48.067Z,20.96
2018-12-24T13:01:14.036Z,20.96
2018-12-24T13:03:40.147Z,20.95
2018-12-24T13:06:06.164Z,20.95
2018-12-24T13:08:32.156Z,20.95
2018-12-24T13:10:58.647Z,20.95
2018-12-24T13:13:24.801Z,20.93
2018-12-24T13:15:50.807Z,20.93
2018-12-24T13:18:16.839Z,20.94
2018-12-24T13:20:42.844Z,20.95
2018-12-24T13:23:08.847Z,20.95
2018-12-24T13:25:34.858Z,20.93
2018-12-24T13:28:00.925Z,20.92
2018-12-24T13:30:26.887Z,20.91
2018-12-24T13:32:55.226Z,20.90
2018-12-24T13:35:21.731Z,20.88
2018-12-24T13:37:47.698Z,20.88
2018-12-24T13:40:13.851Z,20.89
2018-12-24T13:42:39.980Z,20.88
2018-12-24T13:45:06.018Z,20.86
2018-12-24T13:47:31.981Z,20.85
2018-12-24T13:49:57.968Z,20.85
2018-12-24T13:52:23.984Z,20.85
2018-12-24T13:54:49.977Z,20.85
2018-12-24T13:57:15.968Z,20.85
2018-12-24T13:59:41.999Z,20.82
2018-12-24T14:02:07.982Z,20.81
2018-12-24T14:04:33.950Z,20.83
2018-12-24T14:06:59.996Z,20.81
2018-12-24T14:09:25.968Z,20.82
2018-12-24T14:11:51.945Z,20.81
2018-12-24T14:14:18.049Z,20.79
2018-12-24T14:16:43.990Z,20.80
2018-12-24T14:19:09.957Z,20.79
2018-12-24T14:21:35.978Z,20.80
2018-12-24T14:24:01.956Z,20.83
2018-12-24T14:26:27.983Z,20.82
2018-12-24T14:28:54.015Z,20.80
2018-12-24T14:31:19.994Z,20.81
2018-12-24T14:33:45.965Z,20.81
2018-12-24T14:36:11.988Z,20.82
2018-12-24T14:38:37.978Z,20.83
2018-12-24T14:41:03.980Z,20.84
2018-12-24T14:43:30.029Z,20.86
2018-12-24T14:45:56.040Z,20.89
2018-12-24T14:48:24.350Z,20.89
2018-12-24T14:50:52.214Z,20.90
2018-12-24T14:53:26.947Z,20.92
2018-12-24T14:55:52.935Z,20.92
2018-12-24T14:58:19.248Z,20.90
2018-12-24T15:00:45.253Z,20.89
2018-12-24T15:03:11.264Z,20.87
2018-12-24T15:05:38.933Z,20.90
2018-12-24T15:08:08.315Z,20.92
2018-12-24T15:10:38.393Z,20.92
2018-12-24T15:13:12.236Z,20.94
2018-12-24T15:15:41.874Z,20.94
2018-12-24T15:18:07.863Z,20.94
2018-12-24T15:20:35.050Z,20.96
2018-12-24T15:23:01.060Z,20.95
2018-12-24T15:25:28.418Z,20.93
2018-12-24T15:27:59.340Z,20.93
2018-12-24T15:30:25.484Z,20.93
2018-12-24T15:32:51.986Z,20.94
2018-12-24T15:35:18.485Z,20.93
2018-12-24T15:40:45.227Z,20.90
2018-12-24T15:46:18.223Z,20.89
2018-12-24T15:48:58.587Z,20.88
2018-12-24T15:51:46.713Z,20.86
2018-12-24T15:54:23.418Z,20.86
2018-12-24T15:56:56.432Z,20.86
2018-12-24T16:02:33.962Z,20.84
2018-12-24T16:07:27.004Z,20.84
2018-12-24T16:10:04.395Z,20.84
2018-12-24T16:12:36.662Z,20.84
2018-12-24T16:15:02.645Z,20.83
2018-12-24T16:17:28.625Z,20.84
2018-12-24T16:19:54.687Z,20.82
2018-12-24T16:22:20.790Z,20.80
2018-12-24T16:24:46.782Z,20.81
2018-12-24T16:27:12.811Z,20.81
2018-12-24T16:29:38.831Z,20.81
2018-12-24T16:32:04.854Z,20.81
2018-12-24T16:34:30.855Z,20.82
2018-12-24T16:36:56.843Z,20.83
2018-12-24T16:39:22.891Z,20.82
2018-12-24T16:41:48.861Z,20.81
2018-12-24T16:44:14.856Z,20.83
2018-12-24T16:46:40.914Z,20.83
2018-12-24T16:49:06.931Z,20.83
2018-12-24T16:51:32.933Z,20.83
2018-12-24T16:53:58.972Z,20.83
2018-12-24T16:56:24.959Z,20.83
2018-12-24T16:58:50.942Z,20.82
2018-12-24T17:01:16.978Z,20.82
2018-12-24T17:03:42.991Z,20.82
2018-12-24T17:06:09.037Z,20.80
2018-12-24T17:08:35.088Z,20.80
2018-12-24T17:11:01.064Z,20.79
2018-12-24T17:13:27.079Z,20.81
2018-12-24T17:15:53.178Z,20.80
2018-12-24T17:18:19.852Z,20.82
2018-12-24T17:20:45.917Z,20.80
2018-12-24T17:23:12.799Z,20.82
2018-12-24T17:25:38.795Z,20.81
2018-12-24T17:28:04.780Z,20.86
2018-12-24T17:30:30.807Z,20.91
2018-12-24T17:32:56.814Z,20.94
2018-12-24T17:35:22.786Z,20.95
2018-12-24T17:37:48.807Z,20.94
2018-12-24T17:40:14.826Z,20.95
2018-12-24T17:42:40.785Z,20.97
2018-12-24T17:45:06.895Z,20.97
2018-12-24T17:47:32.853Z,20.97
2018-12-24T17:49:58.832Z,21.01
2018-12-24T17:52:24.842Z,21.02
2018-12-24T17:54:50.838Z,21.02
2018-12-24T17:57:16.865Z,21.04
2018-12-24T17:59:42.875Z,21.05
2018-12-24T18:02:08.838Z,21.05
2018-12-24T18:04:34.871Z,21.02
2018-12-24T18:07:00.899Z,20.98
2018-12-24T18:09:26.901Z,20.96
2018-12-24T18:11:52.974Z,20.95
2018-12-24T18:14:19.021Z,20.94
2018-12-24T18:16:45.039Z,20.95
2018-12-24T18:19:11.025Z,20.93
2018-12-24T18:21:37.063Z,20.94
2018-12-24T18:24:03.164Z,20.95
2018-12-24T18:26:29.163Z,20.98
2018-12-24T18:28:55.225Z,20.99
2018-12-24T18:31:21.399Z,20.99
2018-12-24T18:33:47.384Z,20.98
2018-12-24T18:36:15.852Z,20.98
2018-12-24T18:38:41.820Z,20.99
2018-12-24T18:41:08.930Z,20.99
2018-12-24T18:43:34.973Z,21.01
2018-12-24T18:46:00.958Z,21.00
2018-12-24T18:48:26.932Z,21.02
2018-12-24T18:50:52.967Z,21.00
2018-12-24T18:53:19.120Z,21.00
2018-12-24T18:55:45.304Z,21.01
2018-12-24T18:58:11.298Z,21.01
2018-12-24T19:00:37.593Z,21.02
2018-12-24T19:03:03.601Z,21.03
2018-12-24T19:05:29.621Z,21.01
2018-12-24T19:07:55.639Z,21.02
2018-12-24T19:10:21.638Z,21.01
2018-12-24T19:12:47.791Z,21.00
2018-12-24T19:15:13.794Z,21.00
2018-12-24T19:17:41.628Z,21.00
2018-12-24T19:20:05.913Z,21.00
2018-12-24T19:22:31.880Z,21.00
2018-12-24T19:24:58.108Z,21.00
2018-12-24T19:27:24.094Z,21.01
2018-12-24T19:29:50.116Z,21.00
2018-12-24T19:32:16.139Z,21.01
2018-12-24T19:34:42.116Z,21.01
2018-12-24T19:37:08.079Z,21.03
2018-12-24T19:39:34.104Z,21.02
2018-12-24T19:42:00.092Z,21.01
2018-12-24T19:44:26.076Z,21.00
2018-12-24T19:46:52.170Z,20.98
2018-12-24T19:49:18.159Z,20.99
2018-12-24T19:51:44.202Z,20.99
2018-12-24T19:54:10.206Z,21.00
2018-12-24T19:56:36.621Z,20.99
2018-12-24T19:59:02.592Z,20.98
2018-12-24T20:01:28.589Z,20.98
2018-12-24T20:03:54.626Z,20.96
2018-12-24T20:06:20.982Z,20.97
2018-12-24T20:08:46.974Z,20.97
2018-12-24T20:11:13.101Z,20.94
2018-12-24T20:13:42.390Z,20.93
2018-12-24T20:16:05.438Z,20.93
2018-12-24T20:18:31.518Z,20.91
2018-12-24T20:21:00.059Z,20.90
2018-12-24T20:23:26.497Z,20.89
2018-12-24T20:25:52.509Z,20.88
2018-12-24T20:28:18.490Z,20.88
2018-12-24T20:30:44.484Z,20.89
2018-12-24T20:33:10.505Z,20.89
2018-12-24T20:35:36.516Z,20.90
2018-12-24T20:38:02.496Z,20.90
2018-12-24T20:40:28.513Z,20.91
2018-12-24T20:42:54.541Z,20.89
2018-12-24T20:45:20.526Z,20.89
2018-12-24T20:47:46.568Z,20.89
2018-12-24T20:50:12.541Z,20.89
2018-12-24T20:52:38.611Z,20.88
2018-12-24T20:55:04.595Z,20.89
2018-12-24T20:57:30.579Z,20.93
2018-12-24T20:59:56.623Z,20.95
2018-12-24T21:02:22.601Z,20.94
2018-12-24T21:04:48.638Z,20.93
2018-12-24T21:07:14.595Z,20.93
2018-12-24T21:09:40.580Z,20.96
2018-12-24T21:12:06.776Z,20.96
2018-12-24T21:14:32.799Z,20.94
2018-12-24T21:16:58.779Z,20.95
2018-12-24T21:19:24.874Z,20.93
2018-12-24T21:21:50.847Z,20.96
2018-12-24T21:24:16.874Z,20.94
2018-12-24T21:26:42.877Z,20.94
2018-12-24T21:29:08.884Z,20.93
2018-12-24T21:31:34.865Z,20.92
2018-12-24T21:34:00.892Z,20.93
2018-12-24T21:36:26.942Z,20.93
2018-12-24T21:38:52.936Z,20.94
2018-12-24T21:41:18.947Z,20.94
2018-12-24T21:43:45.137Z,20.93
2018-12-24T21:46:11.113Z,20.96
2018-12-24T21:48:37.160Z,20.94
2018-12-24T21:51:03.217Z,20.97
2018-12-24T21:53:29.212Z,20.97
2018-12-24T21:55:55.215Z,20.97
2018-12-24T21:58:21.204Z,20.96
2018-12-24T22:00:47.251Z,20.98
2018-12-24T22:03:13.270Z,20.97
2018-12-24T22:05:39.239Z,20.95
2018-12-24T22:08:05.261Z,20.93
2018-12-24T22:10:31.248Z,20.93
2018-12-24T22:12:57.267Z,20.92
2018-12-24T22:15:23.286Z,20.92
2018-12-24T22:17:49.291Z,20.91
2018-12-24T22:20:15.338Z,20.90
2018-12-24T22:22:41.345Z,20.89
2018-12-24T22:25:07.394Z,20.88
2018-12-24T22:27:33.389Z,20.88
2018-12-24T22:29:59.372Z,20.88
2018-12-24T22:32:25.416Z,20.87
2018-12-24T22:34:51.379Z,20.87
2018-12-24T22:37:17.388Z,20.86
2018-12-24T22:39:43.723Z,20.86
2018-12-24T22:42:10.175Z,20.85
2018-12-24T22:44:36.260Z,20.85
2018-12-24T22:47:02.352Z,20.85
2018-12-24T22:49:28.222Z,20.84
2018-12-24T22:51:54.243Z,20.84
2018-12-24T22:54:20.269Z,20.85
2018-12-24T22:56:46.276Z,20.83
2018-12-24T22:59:12.246Z,20.84
2018-12-24T23:01:38.291Z,20.84
2018-12-24T23:04:04.273Z,20.83
2018-12-24T23:06:30.257Z,20.83
2018-12-24T23:08:57.601Z,20.82
2018-12-24T23:11:23.591Z,20.82
2018-12-24T23:13:49.582Z,20.82
2018-12-24T23:16:15.618Z,20.82
2018-12-24T23:18:49.187Z,20.81
2018-12-24T23:21:07.570Z,20.81
2018-12-24T23:23:36.591Z,20.81
2018-12-24T23:26:02.692Z,20.81
2018-12-24T23:28:28.688Z,20.81
2018-12-24T23:30:54.669Z,20.81
2018-12-24T23:33:22.575Z,20.81
2018-12-24T23:35:48.459Z,20.80
2018-12-24T23:38:16.158Z,20.78
2018-12-24T23:40:42.209Z,20.79
2018-12-24T23:43:08.166Z,20.78
2018-12-24T23:45:34.164Z,20.78
2018-12-24T23:48:00.188Z,20.78
2018-12-24T23:50:26.193Z,20.78
2018-12-24T23:52:52.174Z,20.79
2018-12-24T23:55:20.482Z,20.79
2018-12-24T23:57:46.460Z,20.78
